createdAt,value
2019-03-05T00:00:27.299Z,14.70
2019-03-05T00:02:55.522Z,14.70
2019-03-05T00:05:23.382Z,14.70
2019-03-05T00:07:51.274Z,14.70
2019-03-05T00:10:19.501Z,14.70
2019-03-05T00:12:49.022Z,14.70
2019-03-05T00:15:19.825Z,14.70
2019-03-05T00:17:49.597Z,14.70
2019-03-05T00:20:17.702Z,14.60
2019-03-05T00:22:47.150Z,14.60
2019-03-05T00:25:17.259Z,14.60
2019-03-05T00:28:10.650Z,14.60
2019-03-05T00:31:00.176Z,14.60
2019-03-05T00:34:07.672Z,14.60
2019-03-05T00:36:42.027Z,14.60
2019-03-05T00:39:47.180Z,14.60
2019-03-05T00:42:52.702Z,14.60
2019-03-05T00:45:45.367Z,14.50
2019-03-05T00:49:11.570Z,14.50
2019-03-05T00:52:22.367Z,14.40
2019-03-05T00:55:27.499Z,14.40
2019-03-05T00:58:12.586Z,14.30
2019-03-05T01:01:13.014Z,14.30
2019-03-05T01:04:06.587Z,14.30
2019-03-05T01:06:34.664Z,14.20
2019-03-05T01:09:05.601Z,14.20
2019-03-05T01:11:33.982Z,14.20
2019-03-05T01:14:02.003Z,14.20
2019-03-05T01:16:32.663Z,14.20
2019-03-05T01:19:00.836Z,14.20
2019-03-05T01:21:28.701Z,14.20
2019-03-05T01:23:56.725Z,14.20
2019-03-05T01:26:24.954Z,14.20
2019-03-05T01:28:52.795Z,14.30
2019-03-05T01:31:42.858Z,14.30
2019-03-05T01:34:39.117Z,14.20
2019-03-05T01:37:07.668Z,14.30
2019-03-05T01:39:40.654Z,14.20
2019-03-05T01:42:08.725Z,14.30
2019-03-05T01:44:37.141Z,14.30
2019-03-05T01:47:05.205Z,14.30
2019-03-05T01:49:33.051Z,14.30
2019-03-05T01:52:01.029Z,14.30
2019-03-05T01:54:28.998Z,14.30
2019-03-05T01:56:57.287Z,14.20
2019-03-05T01:59:25.495Z,14.20
2019-03-05T02:01:53.624Z,14.10
2019-03-05T02:04:21.771Z,14.10
2019-03-05T02:06:50.181Z,14.10
2019-03-05T02:09:18.179Z,14.10
2019-03-05T02:11:46.161Z,14.10
2019-03-05T02:14:14.314Z,14.10
2019-03-05T02:16:42.717Z,14.10
2019-03-05T02:19:38.879Z,14.20
2019-03-05T02:22:10.110Z,14.20
2019-03-05T02:25:11.522Z,14.20
2019-03-05T02:28:27.006Z,14.20
2019-03-05T02:31:36.778Z,14.10
2019-03-05T02:34:44.565Z,14.10
2019-03-05T02:37:34.863Z,14.10
2019-03-05T02:40:22.314Z,14.20
2019-03-05T02:43:15.200Z,14.20
2019-03-05T02:46:34.316Z,14.20
2019-03-05T02:49:52.912Z,14.10
2019-03-05T02:52:47.527Z,14.10
2019-03-05T02:55:59.358Z,14.00
2019-03-05T02:58:26.320Z,14.10
2019-03-05T03:01:22.519Z,14.10
2019-03-05T03:03:53.997Z,14.10
2019-03-05T03:06:28.019Z,14.10
2019-03-05T03:09:43.026Z,14.10
2019-03-05T03:12:11.000Z,14.10
2019-03-05T03:14:38.879Z,14.20
2019-03-05T03:17:06.923Z,14.20
2019-03-05T03:19:34.880Z,14.10
2019-03-05T03:22:03.131Z,14.10
2019-03-05T03:24:31.129Z,14.10
2019-03-05T03:26:59.011Z,14.10
2019-03-05T03:29:26.979Z,14.10
2019-03-05T03:31:55.437Z,14.10
2019-03-05T03:34:23.542Z,14.10
2019-03-05T03:36:51.909Z,14.10
2019-03-05T03:39:20.251Z,14.10
2019-03-05T03:41:48.475Z,14.00
2019-03-05T03:44:16.537Z,14.00
2019-03-05T03:46:44.829Z,14.10
2019-03-05T03:49:13.172Z,14.10
2019-03-05T03:51:41.376Z,14.10
2019-03-05T03:54:09.831Z,14.00
2019-03-05T03:56:37.699Z,14.00
2019-03-05T03:59:05.791Z,14.00
2019-03-05T04:01:34.290Z,14.00
2019-03-05T04:04:02.556Z,14.00
2019-03-05T04:06:31.037Z,14.00
2019-03-05T04:08:58.907Z,14.00
2019-03-05T04:11:26.760Z,14.00
2019-03-05T04:13:54.670Z,13.90
2019-03-05T04:16:22.655Z,14.00
2019-03-05T04:18:50.476Z,13.90
2019-03-05T04:21:20.031Z,13.90
2019-03-05T04:23:48.023Z,13.90
2019-03-05T04:26:15.863Z,13.90
2019-03-05T04:28:43.854Z,13.90
2019-03-05T04:31:11.803Z,13.90
2019-03-05T04:33:39.764Z,13.90
2019-03-05T04:36:07.695Z,13.90
2019-03-05T04:38:35.598Z,13.80
2019-03-05T04:41:03.552Z,13.80
2019-03-05T04:43:31.471Z,13.70
2019-03-05T04:46:30.623Z,13.70
2019-03-05T04:49:20.690Z,13.70
2019-03-05T04:51:52.407Z,13.70
2019-03-05T04:54:20.324Z,13.70
2019-03-05T04:56:48.203Z,13.60
2019-03-05T04:59:16.083Z,13.60
2019-03-05T05:01:44.030Z,13.60
2019-03-05T05:04:12.014Z,13.60
2019-03-05T05:06:39.934Z,13.50
2019-03-05T05:09:07.938Z,13.50
2019-03-05T05:11:35.814Z,13.50
2019-03-05T05:14:04.094Z,13.50
2019-03-05T05:16:32.039Z,13.50
2019-03-05T05:19:00.126Z,13.40
2019-03-05T05:21:27.947Z,13.40
2019-03-05T05:23:55.900Z,13.30
2019-03-05T05:26:23.725Z,13.20
2019-03-05T05:28:51.674Z,13.20
2019-03-05T05:31:19.866Z,13.30
2019-03-05T05:33:47.686Z,13.20
2019-03-05T05:36:15.806Z,13.20
2019-03-05T05:38:43.788Z,13.20
2019-03-05T05:41:11.794Z,13.20
2019-03-05T05:43:39.679Z,13.20
2019-03-05T05:46:07.575Z,13.20
2019-03-05T05:48:35.484Z,13.20
2019-03-05T05:51:03.525Z,13.20
2019-03-05T05:53:31.350Z,13.10
2019-03-05T05:55:59.201Z,13.20
2019-03-05T05:58:27.222Z,13.20
2019-03-05T06:00:56.911Z,13.20
2019-03-05T06:03:24.963Z,13.20
2019-03-05T06:05:52.898Z,13.20
2019-03-05T06:08:20.902Z,13.20
2019-03-05T06:10:48.931Z,13.20
2019-03-05T06:13:16.942Z,13.20
2019-03-05T06:15:45.274Z,13.20
2019-03-05T06:18:13.747Z,13.20
2019-03-05T06:20:42.830Z,13.20
2019-03-05T06:23:11.009Z,13.20
2019-03-05T06:25:38.951Z,13.20
2019-03-05T06:28:06.802Z,13.10
2019-03-05T06:30:35.432Z,13.10
2019-03-05T06:33:03.320Z,13.10
2019-03-05T06:35:31.295Z,13.10
2019-03-05T06:37:59.323Z,13.10
2019-03-05T06:40:27.232Z,13.20
2019-03-05T06:42:55.259Z,13.10
2019-03-05T06:45:23.270Z,13.20
2019-03-05T06:47:51.127Z,13.10
2019-03-05T06:50:19.132Z,13.20
2019-03-05T06:52:48.363Z,13.20
2019-03-05T06:55:16.633Z,13.20
2019-03-05T06:57:44.675Z,13.20
2019-03-05T07:00:15.990Z,13.30
2019-03-05T07:02:43.881Z,13.30
2019-03-05T07:05:47.798Z,13.30
2019-03-05T07:08:15.754Z,13.30
2019-03-05T07:11:21.365Z,13.30
2019-03-05T07:13:49.448Z,13.30
2019-03-05T07:16:51.088Z,13.40
2019-03-05T07:20:02.825Z,13.50
2019-03-05T07:22:59.111Z,13.50
2019-03-05T07:25:27.144Z,13.60
2019-03-05T07:27:57.386Z,13.70
2019-03-05T07:30:26.395Z,13.70
2019-03-05T07:32:55.874Z,13.70
2019-03-05T07:35:25.695Z,13.70
2019-03-05T07:37:53.712Z,13.80
2019-03-05T07:40:21.953Z,13.80
2019-03-05T07:42:50.244Z,13.90
2019-03-05T07:45:18.727Z,13.90
2019-03-05T07:47:48.060Z,13.90
2019-03-05T07:50:15.993Z,14.00
2019-03-05T07:52:44.241Z,14.00
2019-03-05T07:55:16.690Z,14.00
2019-03-05T07:57:44.547Z,14.00
2019-03-05T08:00:18.192Z,14.00
2019-03-05T08:02:47.542Z,14.10
2019-03-05T08:05:16.565Z,14.10
2019-03-05T08:07:44.910Z,14.10
2019-03-05T08:10:18.986Z,14.10
2019-03-05T08:13:11.660Z,14.10
2019-03-05T08:16:25.917Z,14.10
2019-03-05T08:18:53.937Z,14.10
2019-03-05T08:21:21.754Z,14.10
2019-03-05T08:23:49.655Z,14.10
2019-03-05T08:26:17.644Z,14.10
2019-03-05T08:28:46.199Z,14.10
2019-03-05T08:31:14.348Z,14.20
2019-03-05T08:33:42.494Z,14.30
2019-03-05T08:36:10.863Z,14.30
2019-03-05T08:38:38.748Z,14.30
2019-03-05T08:41:06.615Z,14.40
2019-03-05T08:43:34.527Z,14.50
2019-03-05T08:46:02.436Z,14.50
2019-03-05T08:48:30.327Z,14.50
2019-03-05T08:50:58.207Z,14.60
2019-03-05T08:53:26.203Z,14.60
2019-03-05T08:55:54.110Z,14.50
2019-03-05T08:58:21.991Z,14.50
2019-03-05T09:00:49.882Z,14.60
2019-03-05T09:03:17.792Z,14.70
2019-03-05T09:05:46.080Z,14.80
2019-03-05T09:08:14.000Z,14.90
2019-03-05T09:10:41.887Z,15.00
2019-03-05T09:13:10.142Z,15.10
2019-03-05T09:15:38.143Z,15.20
2019-03-05T09:18:06.175Z,15.30
2019-03-05T09:20:34.171Z,15.40
2019-03-05T09:23:02.075Z,15.50
2019-03-05T09:25:30.109Z,15.50
2019-03-05T09:27:57.996Z,15.70
2019-03-05T09:30:26.608Z,15.80
2019-03-05T09:32:54.462Z,15.90
2019-03-05T09:35:22.470Z,16.00
2019-03-05T09:37:50.375Z,16.20
2019-03-05T09:40:20.166Z,16.30
2019-03-05T09:42:49.567Z,16.40
2019-03-05T09:45:18.295Z,16.30
2019-03-05T09:47:46.167Z,16.30
2019-03-05T09:50:15.213Z,16.20
2019-03-05T09:52:54.147Z,16.10
2019-03-05T09:55:17.465Z,16.10
2019-03-05T09:57:45.859Z,15.90
2019-03-05T10:00:16.479Z,15.90
2019-03-05T10:02:44.458Z,15.90
2019-03-05T10:05:14.052Z,15.80
2019-03-05T10:07:41.859Z,15.80
2019-03-05T10:10:11.996Z,15.70
2019-03-05T10:12:40.038Z,15.80
2019-03-05T10:15:23.017Z,15.60
2019-03-05T10:17:51.146Z,15.70
2019-03-05T10:20:20.708Z,15.60
2019-03-05T10:22:50.232Z,15.60
2019-03-05T10:25:20.158Z,15.60
2019-03-05T10:27:49.279Z,15.60
2019-03-05T10:30:24.990Z,15.60
2019-03-05T10:32:52.752Z,15.60
2019-03-05T10:35:22.912Z,15.60
2019-03-05T10:37:51.626Z,15.60
2019-03-05T10:40:20.604Z,15.70
2019-03-05T10:42:50.180Z,15.70
2019-03-05T10:45:18.495Z,15.70
2019-03-05T10:47:48.833Z,15.80
2019-03-05T10:50:19.453Z,15.80
2019-03-05T10:52:48.823Z,15.80
2019-03-05T10:55:25.974Z,15.70
2019-03-05T10:57:48.422Z,15.80
2019-03-05T11:00:20.695Z,15.80
2019-03-05T11:02:50.089Z,15.80
2019-03-05T11:05:18.273Z,15.80
2019-03-05T11:07:47.738Z,15.90
2019-03-05T11:10:16.472Z,15.90
2019-03-05T11:12:45.219Z,15.90
2019-03-05T11:15:34.544Z,15.90
2019-03-05T11:18:04.936Z,16.00
2019-03-05T11:20:32.878Z,16.00
2019-03-05T11:23:00.835Z,16.00
2019-03-05T11:25:28.679Z,16.00
2019-03-05T11:27:56.639Z,16.00
2019-03-05T11:30:35.605Z,16.00
2019-03-05T11:32:55.427Z,16.00
2019-03-05T11:35:26.750Z,16.00
2019-03-05T11:37:54.998Z,16.10
2019-03-05T11:40:23.463Z,16.10
2019-03-05T11:42:51.406Z,16.20
2019-03-05T11:45:21.501Z,16.10
2019-03-05T11:47:50.361Z,16.10
2019-03-05T11:50:18.453Z,16.10
2019-03-05T11:52:47.868Z,16.20
2019-03-05T11:55:16.699Z,16.20
2019-03-05T11:57:44.890Z,16.20
2019-03-05T12:00:27.579Z,16.30
2019-03-05T12:02:55.563Z,16.40
2019-03-05T12:05:23.538Z,16.50
2019-03-05T12:07:51.390Z,16.60
2019-03-05T12:10:20.391Z,16.60
2019-03-05T12:12:49.450Z,16.70
2019-03-05T12:15:47.462Z,17.10
2019-03-05T12:18:15.407Z,17.30
2019-03-05T12:20:43.419Z,17.60
2019-03-05T12:23:11.934Z,17.70
2019-03-05T12:25:41.174Z,17.80
2019-03-05T12:28:10.869Z,17.90
2019-03-05T12:30:39.239Z,18.40
2019-03-05T12:33:07.293Z,18.70
2019-03-05T12:35:35.609Z,18.40
2019-03-05T12:38:03.947Z,18.20
2019-03-05T12:40:31.884Z,18.20
2019-03-05T12:42:59.767Z,18.60
2019-03-05T12:45:27.973Z,18.70
2019-03-05T12:47:55.956Z,18.80
2019-03-05T12:50:23.955Z,19.10
2019-03-05T12:52:52.476Z,19.30
2019-03-05T12:55:20.944Z,19.40
2019-03-05T12:57:49.454Z,19.10
2019-03-05T13:00:20.078Z,18.90
2019-03-05T13:02:49.361Z,18.80
2019-03-05T13:05:17.930Z,18.50
2019-03-05T13:07:47.458Z,18.40
2019-03-05T13:10:17.531Z,18.30
2019-03-05T13:12:45.510Z,18.40
2019-03-05T13:15:56.165Z,18.40
2019-03-05T13:18:19.567Z,18.70
2019-03-05T13:20:47.778Z,19.10
2019-03-05T13:23:15.751Z,19.40
2019-03-05T13:25:43.820Z,19.70
2019-03-05T13:28:11.798Z,19.90
2019-03-05T13:30:40.452Z,20.10
2019-03-05T13:33:08.451Z,20.20
2019-03-05T13:35:36.319Z,20.40
2019-03-05T13:38:07.663Z,20.40
2019-03-05T13:40:38.223Z,20.00
2019-03-05T13:43:04.842Z,20.00
2019-03-05T13:45:32.831Z,20.00
2019-03-05T13:48:07.407Z,20.00
2019-03-05T13:51:12.395Z,20.10
2019-03-05T13:54:43.987Z,20.30
2019-03-05T13:58:09.539Z,20.30
2019-03-05T14:00:38.137Z,20.00
2019-03-05T14:03:27.314Z,20.10
2019-03-05T14:06:13.027Z,20.10
2019-03-05T14:09:12.445Z,20.30
2019-03-05T14:11:40.718Z,20.50
2019-03-05T14:14:17.865Z,20.70
2019-03-05T14:16:46.893Z,20.80
2019-03-05T14:19:14.759Z,20.90
2019-03-05T14:21:42.780Z,20.90
2019-03-05T14:24:10.779Z,21.00
2019-03-05T14:26:38.758Z,21.00
2019-03-05T14:29:06.808Z,21.10
2019-03-05T14:31:34.775Z,21.20
2019-03-05T14:34:02.843Z,21.20
2019-03-05T14:36:30.755Z,21.30
2019-03-05T14:38:59.257Z,21.20
2019-03-05T14:41:27.790Z,21.40
2019-03-05T14:43:55.939Z,21.20
2019-03-05T14:46:23.907Z,21.20
2019-03-05T14:48:52.019Z,21.20
2019-03-05T14:51:20.052Z,21.20
2019-03-05T14:53:48.011Z,21.50
2019-03-05T14:56:17.245Z,21.50
2019-03-05T14:58:45.193Z,21.60
2019-03-05T15:01:13.005Z,21.60
2019-03-05T15:03:41.000Z,21.60
2019-03-05T15:06:09.110Z,21.40
2019-03-05T15:08:37.015Z,21.40
2019-03-05T15:11:04.939Z,21.40
2019-03-05T15:13:32.987Z,21.30
2019-03-05T15:16:24.010Z,21.40
2019-03-05T15:18:51.915Z,21.40
2019-03-05T15:21:19.834Z,21.20
2019-03-05T15:23:47.789Z,21.30
2019-03-05T15:26:15.810Z,21.40
2019-03-05T15:28:55.450Z,21.30
2019-03-05T15:31:13.500Z,21.00
2019-03-05T15:33:42.044Z,20.90
2019-03-05T15:36:19.549Z,20.70
2019-03-05T15:38:39.891Z,20.70
2019-03-05T15:41:08.013Z,20.60
2019-03-05T15:43:36.041Z,20.70
2019-03-05T15:46:04.026Z,20.70
2019-03-05T15:48:32.018Z,20.60
2019-03-05T15:50:59.910Z,20.50
2019-03-05T15:53:28.007Z,20.40
2019-03-05T15:55:56.178Z,20.40
2019-03-05T15:58:24.064Z,20.30
2019-03-05T16:00:52.227Z,20.30
2019-03-05T16:03:20.385Z,20.20
2019-03-05T16:05:48.398Z,20.10
2019-03-05T16:08:16.311Z,20.00
2019-03-05T16:10:44.272Z,19.90
2019-03-05T16:13:15.258Z,19.80
2019-03-05T16:16:24.273Z,19.60
2019-03-05T16:18:50.484Z,19.50
2019-03-05T16:21:18.496Z,19.40
2019-03-05T16:23:46.394Z,19.40
2019-03-05T16:26:14.341Z,19.40
2019-03-05T16:28:43.614Z,19.30
2019-03-05T16:31:21.979Z,19.20
2019-03-05T16:34:24.608Z,19.20
2019-03-05T16:37:14.951Z,19.00
2019-03-05T16:39:57.904Z,19.00
2019-03-05T16:42:36.842Z,18.80
2019-03-05T16:45:11.593Z,18.70
2019-03-05T16:47:51.291Z,18.60
2019-03-05T16:50:38.659Z,18.50
2019-03-05T16:53:31.749Z,18.40
2019-03-05T16:56:14.358Z,18.30
2019-03-05T16:59:13.538Z,18.20
2019-03-05T17:01:59.711Z,18.10
2019-03-05T17:04:56.018Z,18.00
2019-03-05T17:07:49.953Z,17.90
2019-03-05T17:10:36.311Z,17.90
2019-03-05T17:13:04.622Z,17.90
2019-03-05T17:16:14.355Z,17.90
2019-03-05T17:18:41.220Z,17.80
2019-03-05T17:21:09.409Z,17.70
2019-03-05T17:23:37.720Z,17.70
2019-03-05T17:26:05.855Z,17.70
2019-03-05T17:28:33.707Z,17.60
2019-03-05T17:31:02.037Z,17.50
2019-03-05T17:33:29.922Z,17.40
2019-03-05T17:35:58.293Z,17.30
2019-03-05T17:38:26.233Z,17.30
2019-03-05T17:40:54.208Z,17.30
2019-03-05T17:43:22.218Z,17.30
2019-03-05T17:45:50.182Z,17.10
2019-03-05T17:48:18.174Z,17.10
2019-03-05T17:50:46.295Z,17.00
2019-03-05T17:53:14.139Z,16.90
2019-03-05T17:55:42.759Z,16.80
2019-03-05T17:58:10.708Z,16.70
2019-03-05T18:00:39.805Z,16.70
2019-03-05T18:03:08.188Z,16.70
2019-03-05T18:05:36.135Z,16.60
2019-03-05T18:08:04.528Z,16.60
2019-03-05T18:10:33.306Z,16.50
2019-03-05T18:13:01.739Z,16.40
2019-03-05T18:16:08.802Z,16.30
2019-03-05T18:18:35.984Z,16.20
2019-03-05T18:21:05.153Z,16.20
2019-03-05T18:23:33.799Z,16.20
2019-03-05T18:26:02.151Z,16.20
2019-03-05T18:28:30.759Z,16.20
2019-03-05T18:30:59.092Z,16.20
2019-03-05T18:33:27.662Z,16.10
2019-03-05T18:35:56.346Z,16.00
2019-03-05T18:38:26.336Z,15.90
2019-03-05T18:40:55.015Z,15.90
2019-03-05T18:43:23.680Z,15.90
2019-03-05T18:45:52.406Z,15.80
2019-03-05T18:48:22.259Z,15.80
2019-03-05T18:50:52.874Z,15.80
2019-03-05T18:53:21.242Z,15.70
2019-03-05T18:55:49.982Z,15.70
2019-03-05T18:58:18.573Z,15.60
2019-03-05T19:00:47.858Z,15.50
2019-03-05T19:03:16.806Z,15.50
2019-03-05T19:05:45.691Z,15.40
2019-03-05T19:08:14.551Z,15.30
2019-03-05T19:10:43.245Z,15.30
2019-03-05T19:13:11.974Z,15.30
2019-03-05T19:16:26.811Z,15.30
2019-03-05T19:18:53.489Z,15.20
2019-03-05T19:21:22.478Z,15.20
2019-03-05T19:23:51.326Z,15.10
2019-03-05T19:26:20.082Z,15.10
2019-03-05T19:28:48.899Z,15.10
2019-03-05T19:31:17.605Z,15.20
2019-03-05T19:33:46.511Z,15.10
2019-03-05T19:36:15.238Z,15.00
2019-03-05T19:38:44.066Z,15.00
2019-03-05T19:41:13.650Z,15.00
2019-03-05T19:43:42.490Z,15.00
2019-03-05T19:46:11.523Z,14.90
2019-03-05T19:48:40.351Z,14.90
2019-03-05T19:51:09.306Z,14.90
2019-03-05T19:53:41.291Z,14.80
2019-03-05T19:56:10.130Z,14.80
2019-03-05T19:58:39.107Z,14.90
2019-03-05T20:01:12.895Z,14.80
2019-03-05T20:03:41.883Z,14.80
2019-03-05T20:06:17.906Z,14.70
2019-03-05T20:08:46.938Z,14.60
2019-03-05T20:11:21.608Z,14.50
2019-03-05T20:13:50.409Z,14.60
2019-03-05T20:16:57.760Z,14.50
2019-03-05T20:19:26.570Z,14.40
2019-03-05T20:21:55.369Z,14.40
2019-03-05T20:24:24.047Z,14.30
2019-03-05T20:26:52.833Z,14.30
2019-03-05T20:29:21.647Z,14.40
2019-03-05T20:31:50.439Z,14.40
2019-03-05T20:34:19.219Z,14.40
2019-03-05T20:36:48.059Z,14.40
2019-03-05T20:39:16.965Z,14.30
2019-03-05T20:41:45.775Z,14.40
2019-03-05T20:44:14.566Z,14.30
2019-03-05T20:46:43.406Z,14.30
2019-03-05T20:49:12.254Z,14.20
2019-03-05T20:51:42.236Z,14.10
2019-03-05T20:54:10.879Z,14.10
2019-03-05T20:56:39.561Z,14.10
2019-03-05T20:59:08.025Z,14.10
2019-03-05T21:01:36.917Z,14.10
2019-03-05T21:04:06.127Z,14.00
2019-03-05T21:06:34.865Z,14.00
2019-03-05T21:09:05.121Z,13.90
2019-03-05T21:11:33.765Z,13.90
2019-03-05T21:14:02.424Z,13.90
2019-03-05T21:17:04.524Z,13.90
2019-03-05T21:19:33.297Z,13.90
2019-03-05T21:22:01.678Z,13.80
2019-03-05T21:24:29.619Z,13.80
2019-03-05T21:27:29.864Z,13.70
2019-03-05T21:29:57.482Z,13.70
2019-03-05T21:32:26.053Z,13.70
2019-03-05T21:34:54.363Z,13.70
2019-03-05T21:37:22.317Z,13.70
2019-03-05T21:39:50.193Z,13.60
2019-03-05T21:42:18.124Z,13.60
2019-03-05T21:44:46.050Z,13.60
2019-03-05T21:47:14.105Z,13.70
2019-03-05T21:49:42.055Z,13.70
2019-03-05T21:52:09.962Z,13.50
2019-03-05T21:54:37.979Z,13.50
2019-03-05T21:57:06.327Z,13.50
2019-03-05T21:59:34.261Z,13.50
2019-03-05T22:02:02.473Z,13.50
2019-03-05T22:04:30.465Z,13.60
2019-03-05T22:06:58.447Z,13.50
2019-03-05T22:09:26.594Z,13.50
2019-03-05T22:11:54.500Z,13.50
2019-03-05T22:14:51.364Z,13.50
2019-03-05T22:17:18.466Z,13.50
2019-03-05T22:19:46.455Z,13.40
2019-03-05T22:22:14.354Z,13.40
2019-03-05T22:24:42.450Z,13.40
2019-03-05T22:27:10.434Z,13.40
2019-03-05T22:29:38.260Z,13.40
2019-03-05T22:32:06.292Z,13.30
2019-03-05T22:34:34.573Z,13.20
2019-03-05T22:37:02.583Z,13.10
2019-03-05T22:39:30.903Z,13.10
2019-03-05T22:41:58.882Z,13.20
2019-03-05T22:44:26.964Z,13.20
2019-03-05T22:46:55.059Z,13.20
2019-03-05T22:49:23.146Z,13.20
2019-03-05T22:51:51.093Z,13.20
2019-03-05T22:54:19.051Z,13.10
2019-03-05T22:56:47.135Z,13.10
2019-03-05T22:59:15.126Z,13.10
2019-03-05T23:01:43.999Z,13.00
2019-03-05T23:04:14.851Z,13.00
2019-03-05T23:06:43.179Z,13.00
2019-03-05T23:09:22.599Z,13.00
2019-03-05T23:11:50.861Z,13.00
2019-03-05T23:14:18.973Z,12.90
2019-03-05T23:16:47.300Z,12.90
2019-03-05T23:19:15.459Z,12.90
2019-03-05T23:21:43.547Z,12.90
2019-03-05T23:24:11.963Z,12.80
2019-03-05T23:26:40.108Z,12.80
2019-03-05T23:29:09.482Z,12.80
2019-03-05T23:31:37.769Z,12.70
2019-03-05T23:34:05.911Z,12.80
2019-03-05T23:36:34.023Z,12.70
2019-03-05T23:39:02.143Z,12.70
2019-03-05T23:41:30.159Z,12.70
2019-03-05T23:43:58.238Z,12.60
2019-03-05T23:46:26.591Z,12.60
2019-03-05T23:48:54.598Z,12.60
2019-03-05T23:51:22.944Z,12.50
2019-03-05T23:53:50.992Z,12.50
2019-03-05T23:56:18.897Z,12.50
2019-03-05T23:58:46.925Z,12.40
